Дата Время Давление Темп. Влажн. Скор.ветра Напр.ветра Макс.ветер Осадки/час Осадки
21.07.19 13:00 746.5 21.3 67.9 1 326 3.8 0 3.4
21.07.19 12:00 746.3 20.7 69.3 0.7 283 3.3 0 3.4
21.07.19 11:00 746.4 19.4 73.4 0.9 16 3.7 0 3.4
21.07.19 10:00 746.5 18.1 79.2 0.8 255 3.3 0.2 3.4
21.07.19 09:00 746.7 16.7 86.4 0.6 198 3 0 3.2
21.07.19 08:00 746.5 15.6 91.3 1 282 3.9 0 3.2
21.07.19 07:00 746.3 14.8 93 1.3 357 2.9 0 3.2
21.07.19 06:00 746.1 14.7 93.6 1 268 2.9 0 3.2
21.07.19 05:00 745.9 14.3 93.8 0.9 243 2.6 0 3.2
21.07.19 04:00 745.9 14.3 93.4 1 242 3.2 0 3.2
21.07.19 03:00 745.8 14.3 93.7 1.6 230 3.5 0 3.2
21.07.19 02:00 745.9 14.1 94.1 1.4 228 4 0 3.2
21.07.19 01:00 745.6 14.5 93.8 1.4 231 3.7 0 3.2
20.07.19 23:00 745.2 15.1 92.8 1.6 226 3.1 0 3.2
20.07.19 22:00 745.2 15.6 91.7 1.1 205 3.4 0 3.2
20.07.19 21:00 745 16.8 90.4 1.7 224 3.6 0 3.2
20.07.19 20:00 744.9 17.4 86.3 1.5 225 4.2 1.2 3.2
20.07.19 19:00 744.7 20.4 74.3 0.9 246 3.9 0 2
20.07.19 18:00 743.8 22.1 64.2 1.2 247 5.4 0 2
20.07.19 17:00 743.8 21.8 66.2 1.5 267 8 0 2
20.07.19 15:00 743.1 22 65.2 1.1 308 6 0 2
20.07.19 14:00 743 21.2 69.2 2.2 241 6.6 0.6 2
20.07.19 13:00 742.4 21.7 67.2 1.9 252 7.9 0.2 1.4
20.07.19 12:00 742.4 19.8 75.2 1.8 263 5.6 0 1.2